sensor_id;sensor_type;location;lat;lon;timestamp;P1;durP1;ratioP1;P2;durP2;ratioP2
70975;SDS011;58635;51.198;6.010;2024-01-15T00:02:02;35.47;;;15.80;;
70975;SDS011;58635;51.198;6.010;2024-01-15T00:04:28;29.45;;;14.77;;
70975;SDS011;58635;51.198;6.010;2024-01-15T00:06:53;29.58;;;13.98;;
70975;SDS011;58635;51.198;6.010;2024-01-15T00:09:19;28.30;;;14.20;;
70975;SDS011;58635;51.198;6.010;2024-01-15T00:11:44;31.15;;;14.75;;
70975;SDS011;58635;51.198;6.010;2024-01-15T00:14:10;29.63;;;14.27;;
70975;SDS011;58635;51.198;6.010;2024-01-15T00:16:35;34.28;;;15.25;;
70975;SDS011;58635;51.198;6.010;2024-01-15T00:19:00;32.15;;;14.60;;
70975;SDS011;58635;51.198;6.010;2024-01-15T00:21:26;27.98;;;13.65;;
70975;SDS011;58635;51.198;6.010;2024-01-15T00:23:53;32.05;;;14.82;;
70975;SDS011;58635;51.198;6.010;2024-01-15T00:26:18;27.95;;;14.43;;
70975;SDS011;58635;51.198;6.010;2024-01-15T00:28:44;29.40;;;13.35;;
70975;SDS011;58635;51.198;6.010;2024-01-15T00:31:09;35.25;;;15.07;;
70975;SDS011;58635;51.198;6.010;2024-01-15T00:33:36;26.58;;;14.27;;
70975;SDS011;58635;51.198;6.010;2024-01-15T00:36:01;30.75;;;13.82;;
70975;SDS011;58635;51.198;6.010;2024-01-15T00:38:26;27.55;;;13.48;;
70975;SDS011;58635;51.198;6.010;2024-01-15T00:40:52;30.55;;;13.13;;
70975;SDS011;58635;51.198;6.010;2024-01-15T00:43:17;28.42;;;13.32;;
70975;SDS011;58635;51.198;6.010;2024-01-15T00:45:44;31.95;;;13.75;;
70975;SDS011;58635;51.198;6.010;2024-01-15T00:48:10;28.75;;;12.88;;
70975;SDS011;58635;51.198;6.010;2024-01-15T00:50:35;28.92;;;13.27;;
70975;SDS011;58635;51.198;6.010;2024-01-15T00:53:02;25.73;;;12.90;;
70975;SDS011;58635;51.198;6.010;2024-01-15T00:55:28;25.70;;;13.63;;
70975;SDS011;58635;51.198;6.010;2024-01-15T00:57:54;24.10;;;11.80;;
70975;SDS011;58635;51.198;6.010;2024-01-15T01:00:19;25.20;;;13.27;;
70975;SDS011;58635;51.198;6.010;2024-01-15T01:02:45;25.05;;;11.48;;
70975;SDS011;58635;51.198;6.010;2024-01-15T01:05:10;25.13;;;12.02;;
70975;SDS011;58635;51.198;6.010;2024-01-15T01:07:35;23.25;;;11.27;;
70975;SDS011;58635;51.198;6.010;2024-01-15T01:10:01;21.63;;;11.48;;
70975;SDS011;58635;51.198;6.010;2024-01-15T01:12:28;24.40;;;12.10;;
70975;SDS011;58635;51.198;6.010;2024-01-15T01:14:54;20.27;;;10.57;;
70975;SDS011;58635;51.198;6.010;2024-01-15T01:17:20;22.42;;;11.90;;
70975;SDS011;58635;51.198;6.010;2024-01-15T01:19:45;22.40;;;12.02;;
70975;SDS011;58635;51.198;6.010;2024-01-15T01:22:10;25.38;;;12.43;;
70975;SDS011;58635;51.198;6.010;2024-01-15T01:24:36;24.92;;;12.70;;
70975;SDS011;58635;51.198;6.010;2024-01-15T01:27:01;26.77;;;12.15;;
70975;SDS011;58635;51.198;6.010;2024-01-15T01:29:27;23.50;;;11.85;;
70975;SDS011;58635;51.198;6.010;2024-01-15T01:31:52;25.23;;;13.00;;
70975;SDS011;58635;51.198;6.010;2024-01-15T01:34:17;23.33;;;12.38;;
70975;SDS011;58635;51.198;6.010;2024-01-15T01:36:43;26.55;;;12.40;;
70975;SDS011;58635;51.198;6.010;2024-01-15T01:39:08;24.65;;;12.02;;
70975;SDS011;58635;51.198;6.010;2024-01-15T01:41:34;23.25;;;12.13;;
70975;SDS011;58635;51.198;6.010;2024-01-15T01:43:59;26.30;;;12.82;;
70975;SDS011;58635;51.198;6.010;2024-01-15T01:46:25;23.00;;;12.00;;
70975;SDS011;58635;51.198;6.010;2024-01-15T01:48:52;24.90;;;12.32;;
70975;SDS011;58635;51.198;6.010;2024-01-15T01:51:18;20.35;;;11.32;;
70975;SDS011;58635;51.198;6.010;2024-01-15T01:53:45;19.80;;;10.60;;
70975;SDS011;58635;51.198;6.010;2024-01-15T01:56:11;18.88;;;10.07;;
70975;SDS011;58635;51.198;6.010;2024-01-15T01:58:37;18.45;;;9.60;;
70975;SDS011;58635;51.198;6.010;2024-01-15T02:01:03;19.98;;;9.80;;
70975;SDS011;58635;51.198;6.010;2024-01-15T02:03:30;17.58;;;9.48;;
70975;SDS011;58635;51.198;6.010;2024-01-15T02:05:56;19.02;;;10.25;;
70975;SDS011;58635;51.198;6.010;2024-01-15T02:08:21;16.77;;;9.65;;
70975;SDS011;58635;51.198;6.010;2024-01-15T02:10:47;17.50;;;10.27;;
70975;SDS011;58635;51.198;6.010;2024-01-15T02:13:12;16.10;;;9.88;;
70975;SDS011;58635;51.198;6.010;2024-01-15T02:15:38;18.48;;;11.02;;
70975;SDS011;58635;51.198;6.010;2024-01-15T02:18:04;16.80;;;9.82;;
70975;SDS011;58635;51.198;6.010;2024-01-15T02:20:31;19.10;;;10.00;;
70975;SDS011;58635;51.198;6.010;2024-01-15T02:23:06;15.57;;;9.55;;
70975;SDS011;58635;51.198;6.010;2024-01-15T02:25:34;17.58;;;10.15;;
70975;SDS011;58635;51.198;6.010;2024-01-15T02:28:01;17.05;;;9.95;;
70975;SDS011;58635;51.198;6.010;2024-01-15T02:30:27;18.08;;;9.85;;
70975;SDS011;58635;51.198;6.010;2024-01-15T02:32:53;18.83;;;9.05;;
70975;SDS011;58635;51.198;6.010;2024-01-15T02:35:18;13.95;;;8.70;;
70975;SDS011;58635;51.198;6.010;2024-01-15T02:37:44;16.80;;;10.10;;
70975;SDS011;58635;51.198;6.010;2024-01-15T02:40:09;17.25;;;9.32;;
70975;SDS011;58635;51.198;6.010;2024-01-15T02:42:35;15.45;;;9.05;;
70975;SDS011;58635;51.198;6.010;2024-01-15T02:45:00;15.00;;;9.55;;
70975;SDS011;58635;51.198;6.010;2024-01-15T02:47:26;15.32;;;8.45;;
70975;SDS011;58635;51.198;6.010;2024-01-15T02:49:51;15.32;;;9.00;;
70975;SDS011;58635;51.198;6.010;2024-01-15T02:52:16;15.23;;;8.93;;
70975;SDS011;58635;51.198;6.010;2024-01-15T02:54:42;18.15;;;9.73;;
70975;SDS011;58635;51.198;6.010;2024-01-15T02:57:08;14.30;;;8.38;;
70975;SDS011;58635;51.198;6.010;2024-01-15T02:59:33;17.15;;;8.82;;
70975;SDS011;58635;51.198;6.010;2024-01-15T03:01:59;15.02;;;8.52;;
70975;SDS011;58635;51.198;6.010;2024-01-15T03:04:24;14.55;;;7.90;;
70975;SDS011;58635;51.198;6.010;2024-01-15T03:06:49;15.77;;;8.13;;
70975;SDS011;58635;51.198;6.010;2024-01-15T03:09:14;14.35;;;7.43;;
70975;SDS011;58635;51.198;6.010;2024-01-15T03:11:40;14.45;;;7.60;;
70975;SDS011;58635;51.198;6.010;2024-01-15T03:14:05;13.55;;;7.53;;
70975;SDS011;58635;51.198;6.010;2024-01-15T03:16:31;12.02;;;7.10;;
70975;SDS011;58635;51.198;6.010;2024-01-15T03:18:56;17.00;;;7.65;;
70975;SDS011;58635;51.198;6.010;2024-01-15T03:21:22;14.23;;;8.10;;
70975;SDS011;58635;51.198;6.010;2024-01-15T03:23:47;12.45;;;7.40;;
70975;SDS011;58635;51.198;6.010;2024-01-15T03:26:12;16.50;;;8.02;;
70975;SDS011;58635;51.198;6.010;2024-01-15T03:28:38;16.05;;;8.07;;
70975;SDS011;58635;51.198;6.010;2024-01-15T03:31:03;14.82;;;7.80;;
70975;SDS011;58635;51.198;6.010;2024-01-15T03:33:28;15.93;;;8.70;;
70975;SDS011;58635;51.198;6.010;2024-01-15T03:35:54;12.82;;;7.55;;
70975;SDS011;58635;51.198;6.010;2024-01-15T03:38:19;14.43;;;8.07;;
70975;SDS011;58635;51.198;6.010;2024-01-15T03:40:45;11.85;;;7.05;;
70975;SDS011;58635;51.198;6.010;2024-01-15T03:43:10;13.23;;;8.05;;
70975;SDS011;58635;51.198;6.010;2024-01-15T03:45:35;12.90;;;7.57;;
70975;SDS011;58635;51.198;6.010;2024-01-15T03:48:01;13.35;;;7.30;;
70975;SDS011;58635;51.198;6.010;2024-01-15T03:50:26;14.20;;;7.63;;
70975;SDS011;58635;51.198;6.010;2024-01-15T03:52:51;14.23;;;7.68;;
70975;SDS011;58635;51.198;6.010;2024-01-15T03:55:17;14.48;;;7.65;;
70975;SDS011;58635;51.198;6.010;2024-01-15T03:57:42;13.20;;;7.47;;
70975;SDS011;58635;51.198;6.010;2024-01-15T04:00:07;13.40;;;7.55;;
70975;SDS011;58635;51.198;6.010;2024-01-15T04:02:33;13.63;;;7.60;;
70975;SDS011;58635;51.198;6.010;2024-01-15T04:04:58;12.45;;;7.50;;
70975;SDS011;58635;51.198;6.010;2024-01-15T04:07:24;12.52;;;7.05;;
70975;SDS011;58635;51.198;6.010;2024-01-15T04:09:49;10.38;;;6.43;;
70975;SDS011;58635;51.198;6.010;2024-01-15T04:12:15;12.77;;;6.78;;
70975;SDS011;58635;51.198;6.010;2024-01-15T04:14:40;12.57;;;6.88;;
70975;SDS011;58635;51.198;6.010;2024-01-15T04:17:05;15.00;;;7.32;;
70975;SDS011;58635;51.198;6.010;2024-01-15T04:19:30;12.80;;;6.68;;
70975;SDS011;58635;51.198;6.010;2024-01-15T04:21:56;12.63;;;6.07;;
70975;SDS011;58635;51.198;6.010;2024-01-15T04:24:21;10.65;;;6.20;;
70975;SDS011;58635;51.198;6.010;2024-01-15T04:26:46;13.45;;;5.93;;
70975;SDS011;58635;51.198;6.010;2024-01-15T04:29:12;9.82;;;6.15;;
70975;SDS011;58635;51.198;6.010;2024-01-15T04:31:37;8.93;;;5.57;;
70975;SDS011;58635;51.198;6.010;2024-01-15T04:34:03;11.20;;;5.15;;
70975;SDS011;58635;51.198;6.010;2024-01-15T04:36:28;10.20;;;5.13;;
70975;SDS011;58635;51.198;6.010;2024-01-15T04:38:53;11.40;;;5.75;;
70975;SDS011;58635;51.198;6.010;2024-01-15T04:41:19;9.55;;;5.70;;
70975;SDS011;58635;51.198;6.010;2024-01-15T04:43:44;9.40;;;5.03;;
70975;SDS011;58635;51.198;6.010;2024-01-15T04:46:09;11.20;;;4.72;;
70975;SDS011;58635;51.198;6.010;2024-01-15T04:48:35;8.57;;;5.40;;
70975;SDS011;58635;51.198;6.010;2024-01-15T04:51:00;9.45;;;5.10;;
70975;SDS011;58635;51.198;6.010;2024-01-15T04:53:26;9.43;;;5.03;;
70975;SDS011;58635;51.198;6.010;2024-01-15T04:55:51;9.65;;;4.85;;
70975;SDS011;58635;51.198;6.010;2024-01-15T04:58:16;9.60;;;4.50;;
70975;SDS011;58635;51.198;6.010;2024-01-15T05:00:42;9.35;;;5.13;;
70975;SDS011;58635;51.198;6.010;2024-01-15T05:03:07;9.60;;;4.75;;
70975;SDS011;58635;51.198;6.010;2024-01-15T05:05:33;8.88;;;4.57;;
70975;SDS011;58635;51.198;6.010;2024-01-15T05:07:58;12.55;;;5.30;;
70975;SDS011;58635;51.198;6.010;2024-01-15T05:10:23;10.32;;;5.50;;
70975;SDS011;58635;51.198;6.010;2024-01-15T05:12:49;12.60;;;5.60;;
70975;SDS011;58635;51.198;6.010;2024-01-15T05:15:14;10.45;;;5.57;;
70975;SDS011;58635;51.198;6.010;2024-01-15T05:17:39;8.18;;;5.22;;
70975;SDS011;58635;51.198;6.010;2024-01-15T05:20:05;10.15;;;5.22;;
70975;SDS011;58635;51.198;6.010;2024-01-15T05:22:33;9.63;;;5.22;;
70975;SDS011;58635;51.198;6.010;2024-01-15T05:24:58;12.02;;;5.20;;
70975;SDS011;58635;51.198;6.010;2024-01-15T05:27:24;9.32;;;5.22;;
70975;SDS011;58635;51.198;6.010;2024-01-15T05:29:50;8.32;;;5.13;;
70975;SDS011;58635;51.198;6.010;2024-01-15T05:32:15;10.27;;;5.30;;
70975;SDS011;58635;51.198;6.010;2024-01-15T05:34:41;7.85;;;5.30;;
70975;SDS011;58635;51.198;6.010;2024-01-15T05:37:06;9.60;;;5.45;;
70975;SDS011;58635;51.198;6.010;2024-01-15T05:39:32;13.32;;;6.05;;
70975;SDS011;58635;51.198;6.010;2024-01-15T05:41:58;8.90;;;6.10;;
70975;SDS011;58635;51.198;6.010;2024-01-15T05:44:23;10.98;;;6.35;;
70975;SDS011;58635;51.198;6.010;2024-01-15T05:46:49;10.15;;;6.38;;
70975;SDS011;58635;51.198;6.010;2024-01-15T05:49:14;11.55;;;7.03;;
70975;SDS011;58635;51.198;6.010;2024-01-15T05:51:39;11.98;;;6.57;;
70975;SDS011;58635;51.198;6.010;2024-01-15T05:54:05;10.52;;;7.32;;
70975;SDS011;58635;51.198;6.010;2024-01-15T05:56:31;10.95;;;6.53;;
70975;SDS011;58635;51.198;6.010;2024-01-15T05:58:56;10.65;;;6.18;;
70975;SDS011;58635;51.198;6.010;2024-01-15T06:01:21;13.00;;;6.47;;
70975;SDS011;58635;51.198;6.010;2024-01-15T06:03:47;10.70;;;6.15;;
70975;SDS011;58635;51.198;6.010;2024-01-15T06:06:12;13.43;;;6.15;;
70975;SDS011;58635;51.198;6.010;2024-01-15T06:08:37;11.57;;;6.50;;
70975;SDS011;58635;51.198;6.010;2024-01-15T06:11:03;9.55;;;6.03;;
70975;SDS011;58635;51.198;6.010;2024-01-15T06:13:28;13.20;;;6.20;;
70975;SDS011;58635;51.198;6.010;2024-01-15T06:15:54;12.20;;;6.60;;
70975;SDS011;58635;51.198;6.010;2024-01-15T06:18:19;11.48;;;5.65;;
70975;SDS011;58635;51.198;6.010;2024-01-15T06:20:44;10.70;;;6.15;;
70975;SDS011;58635;51.198;6.010;2024-01-15T06:23:10;9.77;;;5.97;;
70975;SDS011;58635;51.198;6.010;2024-01-15T06:25:40;11.75;;;5.30;;
70975;SDS011;58635;51.198;6.010;2024-01-15T06:28:06;9.30;;;5.82;;
70975;SDS011;58635;51.198;6.010;2024-01-15T06:30:31;11.85;;;5.80;;
70975;SDS011;58635;51.198;6.010;2024-01-15T06:32:56;10.07;;;5.20;;
70975;SDS011;58635;51.198;6.010;2024-01-15T06:35:22;12.98;;;5.90;;
70975;SDS011;58635;51.198;6.010;2024-01-15T06:37:47;8.35;;;5.10;;
70975;SDS011;58635;51.198;6.010;2024-01-15T06:40:12;9.65;;;5.35;;
70975;SDS011;58635;51.198;6.010;2024-01-15T06:42:38;9.35;;;5.75;;
70975;SDS011;58635;51.198;6.010;2024-01-15T06:45:03;7.63;;;4.93;;
70975;SDS011;58635;51.198;6.010;2024-01-15T06:47:29;9.05;;;5.15;;
70975;SDS011;58635;51.198;6.010;2024-01-15T06:49:55;13.75;;;6.07;;
70975;SDS011;58635;51.198;6.010;2024-01-15T06:52:21;11.07;;;5.80;;
70975;SDS011;58635;51.198;6.010;2024-01-15T06:54:46;9.25;;;5.97;;
70975;SDS011;58635;51.198;6.010;2024-01-15T06:57:12;10.10;;;5.85;;
70975;SDS011;58635;51.198;6.010;2024-01-15T06:59:38;9.70;;;6.05;;
70975;SDS011;58635;51.198;6.010;2024-01-15T07:02:03;12.52;;;5.95;;
70975;SDS011;58635;51.198;6.010;2024-01-15T07:04:29;12.45;;;6.43;;
70975;SDS011;58635;51.198;6.010;2024-01-15T07:06:54;14.07;;;6.93;;
70975;SDS011;58635;51.198;6.010;2024-01-15T07:09:19;12.13;;;6.88;;
70975;SDS011;58635;51.198;6.010;2024-01-15T07:11:45;11.27;;;7.03;;
70975;SDS011;58635;51.198;6.010;2024-01-15T07:14:11;15.63;;;6.85;;
70975;SDS011;58635;51.198;6.010;2024-01-15T07:16:37;13.25;;;6.88;;
70975;SDS011;58635;51.198;6.010;2024-01-15T07:19:02;16.77;;;7.70;;
70975;SDS011;58635;51.198;6.010;2024-01-15T07:21:28;15.35;;;7.90;;
70975;SDS011;58635;51.198;6.010;2024-01-15T07:23:53;15.32;;;8.18;;
70975;SDS011;58635;51.198;6.010;2024-01-15T07:26:18;15.35;;;8.07;;
70975;SDS011;58635;51.198;6.010;2024-01-15T07:28:44;14.95;;;7.90;;
70975;SDS011;58635;51.198;6.010;2024-01-15T07:31:09;11.55;;;7.55;;
70975;SDS011;58635;51.198;6.010;2024-01-15T07:33:34;11.95;;;7.07;;
70975;SDS011;58635;51.198;6.010;2024-01-15T07:36:00;13.60;;;8.10;;
70975;SDS011;58635;51.198;6.010;2024-01-15T07:38:26;12.30;;;7.82;;
70975;SDS011;58635;51.198;6.010;2024-01-15T07:40:51;15.25;;;7.78;;
70975;SDS011;58635;51.198;6.010;2024-01-15T07:43:18;15.13;;;8.77;;
70975;SDS011;58635;51.198;6.010;2024-01-15T07:45:44;12.40;;;7.60;;
70975;SDS011;58635;51.198;6.010;2024-01-15T07:48:10;11.68;;;7.50;;
70975;SDS011;58635;51.198;6.010;2024-01-15T07:50:35;13.65;;;8.27;;
70975;SDS011;58635;51.198;6.010;2024-01-15T07:53:01;15.70;;;8.60;;
70975;SDS011;58635;51.198;6.010;2024-01-15T07:55:26;15.95;;;9.02;;
70975;SDS011;58635;51.198;6.010;2024-01-15T07:57:52;15.32;;;7.55;;
70975;SDS011;58635;51.198;6.010;2024-01-15T08:00:18;14.48;;;7.68;;
70975;SDS011;58635;51.198;6.010;2024-01-15T08:02:44;14.77;;;7.90;;
70975;SDS011;58635;51.198;6.010;2024-01-15T08:05:09;16.20;;;8.63;;
70975;SDS011;58635;51.198;6.010;2024-01-15T08:07:35;16.42;;;9.05;;
70975;SDS011;58635;51.198;6.010;2024-01-15T08:10:00;14.85;;;9.02;;
70975;SDS011;58635;51.198;6.010;2024-01-15T08:12:28;15.98;;;8.98;;
70975;SDS011;58635;51.198;6.010;2024-01-15T08:14:53;15.55;;;9.15;;
70975;SDS011;58635;51.198;6.010;2024-01-15T08:17:33;18.17;;;8.90;;
70975;SDS011;58635;51.198;6.010;2024-01-15T08:19:58;16.08;;;9.18;;
70975;SDS011;58635;51.198;6.010;2024-01-15T08:22:25;16.08;;;8.88;;
70975;SDS011;58635;51.198;6.010;2024-01-15T08:24:50;14.82;;;8.40;;
70975;SDS011;58635;51.198;6.010;2024-01-15T08:27:17;12.55;;;8.02;;
70975;SDS011;58635;51.198;6.010;2024-01-15T08:29:42;12.45;;;7.85;;
70975;SDS011;58635;51.198;6.010;2024-01-15T08:32:07;22.92;;;13.93;;
70975;SDS011;58635;51.198;6.010;2024-01-15T08:34:33;14.88;;;7.95;;
70975;SDS011;58635;51.198;6.010;2024-01-15T08:36:58;12.82;;;7.22;;
70975;SDS011;58635;51.198;6.010;2024-01-15T08:39:23;10.43;;;6.47;;
70975;SDS011;58635;51.198;6.010;2024-01-15T08:41:49;8.50;;;5.63;;
70975;SDS011;58635;51.198;6.010;2024-01-15T08:44:14;9.15;;;5.72;;
70975;SDS011;58635;51.198;6.010;2024-01-15T08:46:39;8.75;;;5.15;;
70975;SDS011;58635;51.198;6.010;2024-01-15T08:49:05;6.03;;;5.03;;
70975;SDS011;58635;51.198;6.010;2024-01-15T08:51:30;7.55;;;5.10;;
70975;SDS011;58635;51.198;6.010;2024-01-15T08:53:56;6.95;;;4.45;;
70975;SDS011;58635;51.198;6.010;2024-01-15T08:56:22;7.68;;;4.20;;
70975;SDS011;58635;51.198;6.010;2024-01-15T08:58:47;5.78;;;3.70;;
70975;SDS011;58635;51.198;6.010;2024-01-15T09:01:13;5.70;;;3.75;;
70975;SDS011;58635;51.198;6.010;2024-01-15T09:03:39;6.53;;;3.63;;
70975;SDS011;58635;51.198;6.010;2024-01-15T09:06:06;5.60;;;3.63;;
70975;SDS011;58635;51.198;6.010;2024-01-15T09:08:32;6.30;;;3.28;;
70975;SDS011;58635;51.198;6.010;2024-01-15T09:10:57;6.57;;;3.20;;
70975;SDS011;58635;51.198;6.010;2024-01-15T09:13:23;5.07;;;3.00;;
70975;SDS011;58635;51.198;6.010;2024-01-15T09:15:48;14.05;;;6.25;;
70975;SDS011;58635;51.198;6.010;2024-01-15T09:18:14;9.48;;;5.00;;
70975;SDS011;58635;51.198;6.010;2024-01-15T09:20:39;5.03;;;2.80;;
70975;SDS011;58635;51.198;6.010;2024-01-15T09:23:04;3.83;;;2.42;;
70975;SDS011;58635;51.198;6.010;2024-01-15T09:25:30;3.28;;;2.17;;
70975;SDS011;58635;51.198;6.010;2024-01-15T09:27:55;5.80;;;2.50;;
70975;SDS011;58635;51.198;6.010;2024-01-15T09:30:21;3.80;;;2.15;;
70975;SDS011;58635;51.198;6.010;2024-01-15T09:32:46;4.05;;;2.25;;
70975;SDS011;58635;51.198;6.010;2024-01-15T09:35:11;4.40;;;2.42;;
70975;SDS011;58635;51.198;6.010;2024-01-15T09:37:37;4.22;;;2.38;;
70975;SDS011;58635;51.198;6.010;2024-01-15T09:40:03;4.90;;;2.30;;
70975;SDS011;58635;51.198;6.010;2024-01-15T09:42:31;3.97;;;2.10;;
70975;SDS011;58635;51.198;6.010;2024-01-15T09:44:57;4.43;;;2.33;;
70975;SDS011;58635;51.198;6.010;2024-01-15T09:47:23;2.75;;;1.60;;
70975;SDS011;58635;51.198;6.010;2024-01-15T09:49:49;2.42;;;1.65;;
70975;SDS011;58635;51.198;6.010;2024-01-15T09:52:15;2.95;;;1.75;;
70975;SDS011;58635;51.198;6.010;2024-01-15T09:54:45;3.67;;;1.63;;
70975;SDS011;58635;51.198;6.010;2024-01-15T09:57:11;5.65;;;3.10;;
70975;SDS011;58635;51.198;6.010;2024-01-15T09:59:36;5.22;;;2.20;;
70975;SDS011;58635;51.198;6.010;2024-01-15T10:02:03;3.78;;;1.67;;
70975;SDS011;58635;51.198;6.010;2024-01-15T10:04:31;3.00;;;1.20;;
70975;SDS011;58635;51.198;6.010;2024-01-15T10:06:56;2.00;;;1.10;;
70975;SDS011;58635;51.198;6.010;2024-01-15T10:09:24;2.35;;;1.40;;
70975;SDS011;58635;51.198;6.010;2024-01-15T10:11:50;3.03;;;1.65;;
70975;SDS011;58635;51.198;6.010;2024-01-15T10:14:15;22.08;;;11.25;;
70975;SDS011;58635;51.198;6.010;2024-01-15T10:16:41;4.40;;;2.67;;
70975;SDS011;58635;51.198;6.010;2024-01-15T10:19:07;3.30;;;2.10;;
70975;SDS011;58635;51.198;6.010;2024-01-15T10:21:33;3.22;;;1.98;;
70975;SDS011;58635;51.198;6.010;2024-01-15T10:24:01;3.33;;;1.95;;
70975;SDS011;58635;51.198;6.010;2024-01-15T10:26:28;4.03;;;2.30;;
70975;SDS011;58635;51.198;6.010;2024-01-15T10:29:14;4.35;;;2.63;;
70975;SDS011;58635;51.198;6.010;2024-01-15T10:32:00;3.38;;;2.42;;
70975;SDS011;58635;51.198;6.010;2024-01-15T10:34:46;4.28;;;2.72;;
70975;SDS011;58635;51.198;6.010;2024-01-15T10:37:34;3.83;;;2.92;;
70975;SDS011;58635;51.198;6.010;2024-01-15T10:40:19;4.70;;;2.90;;
70975;SDS011;58635;51.198;6.010;2024-01-15T10:43:05;4.75;;;3.28;;
70975;SDS011;58635;51.198;6.010;2024-01-15T10:45:50;6.32;;;3.10;;
70975;SDS011;58635;51.198;6.010;2024-01-15T10:48:36;3.50;;;2.70;;
70975;SDS011;58635;51.198;6.010;2024-01-15T10:51:21;6.38;;;3.78;;
70975;SDS011;58635;51.198;6.010;2024-01-15T10:54:08;6.90;;;3.40;;
70975;SDS011;58635;51.198;6.010;2024-01-15T10:56:56;6.90;;;3.35;;
70975;SDS011;58635;51.198;6.010;2024-01-15T10:59:41;6.30;;;3.60;;
70975;SDS011;58635;51.198;6.010;2024-01-15T11:02:27;5.07;;;3.63;;
70975;SDS011;58635;51.198;6.010;2024-01-15T11:04:52;6.57;;;3.80;;
70975;SDS011;58635;51.198;6.010;2024-01-15T11:07:18;5.28;;;3.75;;
70975;SDS011;58635;51.198;6.010;2024-01-15T11:09:49;5.70;;;4.30;;
70975;SDS011;58635;51.198;6.010;2024-01-15T11:12:15;6.38;;;4.25;;
70975;SDS011;58635;51.198;6.010;2024-01-15T11:14:47;9.73;;;5.68;;
70975;SDS011;58635;51.198;6.010;2024-01-15T11:17:13;7.63;;;5.50;;
70975;SDS011;58635;51.198;6.010;2024-01-15T11:24:54;10.38;;;4.93;;
70975;SDS011;58635;51.198;6.010;2024-01-15T11:27:39;9.65;;;5.70;;
70975;SDS011;58635;51.198;6.010;2024-01-15T11:30:08;9.40;;;4.93;;
70975;SDS011;58635;51.198;6.010;2024-01-15T11:32:38;8.38;;;4.55;;
70975;SDS011;58635;51.198;6.010;2024-01-15T11:35:07;9.55;;;4.85;;
70975;SDS011;58635;51.198;6.010;2024-01-15T11:43:02;6.35;;;4.13;;
70975;SDS011;58635;51.198;6.010;2024-01-15T11:45:28;9.43;;;5.05;;
70975;SDS011;58635;51.198;6.010;2024-01-15T11:50:23;6.43;;;3.92;;
70975;SDS011;58635;51.198;6.010;2024-01-15T11:52:58;10.80;;;4.32;;
70975;SDS011;58635;51.198;6.010;2024-01-15T11:55:29;6.65;;;3.50;;
70975;SDS011;58635;51.198;6.010;2024-01-15T11:58:00;6.20;;;3.60;;
70975;SDS011;58635;51.198;6.010;2024-01-15T12:00:28;7.10;;;3.22;;
70975;SDS011;58635;51.198;6.010;2024-01-15T12:02:54;8.05;;;3.13;;
70975;SDS011;58635;51.198;6.010;2024-01-15T12:05:19;7.13;;;2.90;;
70975;SDS011;58635;51.198;6.010;2024-01-15T12:07:55;7.75;;;2.67;;
70975;SDS011;58635;51.198;6.010;2024-01-15T12:10:21;5.20;;;2.85;;
70975;SDS011;58635;51.198;6.010;2024-01-15T12:12:51;3.97;;;2.15;;
70975;SDS011;58635;51.198;6.010;2024-01-15T12:15:22;4.35;;;2.30;;
70975;SDS011;58635;51.198;6.010;2024-01-15T12:17:47;6.68;;;2.25;;
70975;SDS011;58635;51.198;6.010;2024-01-15T12:20:13;3.60;;;1.90;;
70975;SDS011;58635;51.198;6.010;2024-01-15T12:22:39;7.18;;;2.20;;
70975;SDS011;58635;51.198;6.010;2024-01-15T12:25:05;3.33;;;1.92;;
70975;SDS011;58635;51.198;6.010;2024-01-15T12:27:30;3.53;;;1.83;;
70975;SDS011;58635;51.198;6.010;2024-01-15T12:29:57;6.35;;;2.10;;
70975;SDS011;58635;51.198;6.010;2024-01-15T12:32:23;5.95;;;2.05;;
70975;SDS011;58635;51.198;6.010;2024-01-15T12:34:50;5.88;;;2.00;;
70975;SDS011;58635;51.198;6.010;2024-01-15T12:37:17;3.80;;;1.67;;
70975;SDS011;58635;51.198;6.010;2024-01-15T12:39:44;3.63;;;1.80;;
70975;SDS011;58635;51.198;6.010;2024-01-15T12:42:09;4.38;;;2.03;;
70975;SDS011;58635;51.198;6.010;2024-01-15T12:44:35;3.25;;;2.20;;
70975;SDS011;58635;51.198;6.010;2024-01-15T12:47:03;4.43;;;2.40;;
70975;SDS011;58635;51.198;6.010;2024-01-15T12:49:29;3.75;;;2.70;;
70975;SDS011;58635;51.198;6.010;2024-01-15T12:51:56;3.10;;;1.88;;
70975;SDS011;58635;51.198;6.010;2024-01-15T12:54:22;3.90;;;1.90;;
70975;SDS011;58635;51.198;6.010;2024-01-15T12:56:49;4.93;;;2.22;;
70975;SDS011;58635;51.198;6.010;2024-01-15T12:59:14;2.92;;;1.70;;
70975;SDS011;58635;51.198;6.010;2024-01-15T13:01:40;3.08;;;1.80;;
70975;SDS011;58635;51.198;6.010;2024-01-15T13:04:06;3.78;;;1.80;;
70975;SDS011;58635;51.198;6.010;2024-01-15T13:06:34;2.70;;;1.70;;
70975;SDS011;58635;51.198;6.010;2024-01-15T13:09:03;3.67;;;2.00;;
70975;SDS011;58635;51.198;6.010;2024-01-15T13:11:32;3.22;;;2.20;;
70975;SDS011;58635;51.198;6.010;2024-01-15T13:13:58;4.47;;;2.53;;
70975;SDS011;58635;51.198;6.010;2024-01-15T13:16:23;4.30;;;2.35;;
70975;SDS011;58635;51.198;6.010;2024-01-15T13:18:48;4.32;;;1.90;;
70975;SDS011;58635;51.198;6.010;2024-01-15T13:21:15;2.35;;;1.48;;
70975;SDS011;58635;51.198;6.010;2024-01-15T13:23:40;2.45;;;1.70;;
70975;SDS011;58635;51.198;6.010;2024-01-15T13:26:05;3.75;;;1.63;;
70975;SDS011;58635;51.198;6.010;2024-01-15T13:28:32;3.15;;;1.50;;
70975;SDS011;58635;51.198;6.010;2024-01-15T13:30:57;3.25;;;1.58;;
70975;SDS011;58635;51.198;6.010;2024-01-15T13:33:23;2.95;;;1.42;;
70975;SDS011;58635;51.198;6.010;2024-01-15T13:35:48;2.05;;;1.30;;
70975;SDS011;58635;51.198;6.010;2024-01-15T13:38:15;3.55;;;1.52;;
70975;SDS011;58635;51.198;6.010;2024-01-15T13:40:41;2.65;;;1.60;;
70975;SDS011;58635;51.198;6.010;2024-01-15T13:43:06;4.00;;;1.65;;
70975;SDS011;58635;51.198;6.010;2024-01-15T13:45:33;3.65;;;2.20;;
70975;SDS011;58635;51.198;6.010;2024-01-15T13:47:59;4.95;;;2.53;;
70975;SDS011;58635;51.198;6.010;2024-01-15T13:50:24;5.20;;;3.05;;
70975;SDS011;58635;51.198;6.010;2024-01-15T13:52:50;4.88;;;2.10;;
70975;SDS011;58635;51.198;6.010;2024-01-15T13:55:15;3.58;;;1.90;;
70975;SDS011;58635;51.198;6.010;2024-01-15T13:57:41;2.65;;;1.83;;
70975;SDS011;58635;51.198;6.010;2024-01-15T14:00:06;3.70;;;1.42;;
70975;SDS011;58635;51.198;6.010;2024-01-15T14:02:36;4.43;;;1.55;;
70975;SDS011;58635;51.198;6.010;2024-01-15T14:05:03;3.25;;;1.52;;
70975;SDS011;58635;51.198;6.010;2024-01-15T14:07:28;2.83;;;1.60;;
70975;SDS011;58635;51.198;6.010;2024-01-15T14:09:54;3.88;;;1.65;;
70975;SDS011;58635;51.198;6.010;2024-01-15T14:12:19;2.22;;;1.40;;
70975;SDS011;58635;51.198;6.010;2024-01-15T14:14:44;3.08;;;1.85;;
70975;SDS011;58635;51.198;6.010;2024-01-15T14:17:10;3.65;;;1.50;;
70975;SDS011;58635;51.198;6.010;2024-01-15T14:19:35;3.50;;;1.75;;
70975;SDS011;58635;51.198;6.010;2024-01-15T14:22:01;5.55;;;2.60;;
70975;SDS011;58635;51.198;6.010;2024-01-15T14:24:26;4.25;;;2.55;;
70975;SDS011;58635;51.198;6.010;2024-01-15T14:26:51;2.88;;;1.25;;
70975;SDS011;58635;51.198;6.010;2024-01-15T14:29:17;3.15;;;1.05;;
70975;SDS011;58635;51.198;6.010;2024-01-15T14:31:45;2.05;;;1.30;;
70975;SDS011;58635;51.198;6.010;2024-01-15T14:34:11;1.42;;;1.00;;
70975;SDS011;58635;51.198;6.010;2024-01-15T14:36:36;2.58;;;1.40;;
70975;SDS011;58635;51.198;6.010;2024-01-15T14:39:03;3.25;;;1.58;;
70975;SDS011;58635;51.198;6.010;2024-01-15T14:41:29;7.90;;;3.85;;
70975;SDS011;58635;51.198;6.010;2024-01-15T14:43:55;2.60;;;1.20;;
70975;SDS011;58635;51.198;6.010;2024-01-15T14:46:22;1.92;;;1.35;;
70975;SDS011;58635;51.198;6.010;2024-01-15T14:48:47;1.83;;;1.17;;